sensor_id;sensor_type;location;lat;lon;timestamp;pressure;altitude;pressure_sealevel;temperature;humidity
48882;BME280;57063;51.406;-2.402;2023-03-20T00:35:37;100687.06;;;6.23;92.00
48882;BME280;57063;51.406;-2.402;2023-03-20T00:45:31;100670.13;;;5.95;95.74
48882;BME280;57063;51.406;-2.402;2023-03-20T00:52:03;100660.34;;;6.30;92.17
48882;BME280;57063;51.406;-2.402;2023-03-20T01:09:51;100670.56;;;6.77;89.44
48882;BME280;57063;51.406;-2.402;2023-03-20T01:13:09;100650.34;;;6.92;88.19
48882;BME280;57063;51.406;-2.402;2023-03-20T01:19:04;100644.25;;;6.94;87.94
48882;BME280;57063;51.406;-2.402;2023-03-20T01:21:51;100638.50;;;6.88;88.85
48882;BME280;57063;51.406;-2.402;2023-03-20T01:24:44;100652.25;;;7.08;88.37
48882;BME280;57063;51.406;-2.402;2023-03-20T01:28:06;100645.31;;;7.11;87.48
48882;BME280;57063;51.406;-2.402;2023-03-20T01:31:20;100681.13;;;7.36;88.16
48882;BME280;57063;51.406;-2.402;2023-03-20T01:47:50;100639.22;;;7.13;88.18
48882;BME280;57063;51.406;-2.402;2023-03-20T01:54:27;100628.47;;;7.25;89.10
48882;BME280;57063;51.406;-2.402;2023-03-20T01:57:19;100670.09;;;7.54;89.68
48882;BME280;57063;51.406;-2.402;2023-03-20T02:03:24;100622.78;;;7.39;90.36
48882;BME280;57063;51.406;-2.402;2023-03-20T02:05:57;100653.78;;;7.55;91.17
48882;BME280;57063;51.406;-2.402;2023-03-20T02:09:09;100615.19;;;7.36;91.15
48882;BME280;57063;51.406;-2.402;2023-03-20T02:15:10;100661.28;;;7.80;90.26
48882;BME280;57063;51.406;-2.402;2023-03-20T02:17:54;100627.22;;;7.56;91.44
48882;BME280;57063;51.406;-2.402;2023-03-20T02:27:27;100621.81;;;7.62;92.46
48882;BME280;57063;51.406;-2.402;2023-03-20T02:30:19;100624.88;;;7.70;92.97
48882;BME280;57063;51.406;-2.402;2023-03-20T02:50:52;100569.53;;;7.43;97.41
48882;BME280;57063;51.406;-2.402;2023-03-20T02:59:25;100580.84;;;7.59;99.59
48882;BME280;57063;51.406;-2.402;2023-03-20T03:02:13;100585.00;;;7.62;100.00
48882;BME280;57063;51.406;-2.402;2023-03-20T03:05:02;100589.81;;;7.69;100.00
48882;BME280;57063;51.406;-2.402;2023-03-20T03:07:38;100563.75;;;7.58;100.00
48882;BME280;57063;51.406;-2.402;2023-03-20T03:13:26;100585.69;;;7.86;100.00
48882;BME280;57063;51.406;-2.402;2023-03-20T03:16:29;100552.41;;;7.64;100.00
48882;BME280;57063;51.406;-2.402;2023-03-20T03:19:19;100545.22;;;7.70;100.00
48882;BME280;57063;51.406;-2.402;2023-03-20T03:24:38;100571.94;;;7.87;100.00
48882;BME280;57063;51.406;-2.402;2023-03-20T03:27:34;100545.91;;;7.76;100.00
48882;BME280;57063;51.406;-2.402;2023-03-20T03:33:37;100547.41;;;7.80;100.00
48882;BME280;57063;51.406;-2.402;2023-03-20T03:41:58;100557.44;;;7.86;100.00
48882;BME280;57063;51.406;-2.402;2023-03-20T03:47:23;100567.78;;;8.03;100.00
48882;BME280;57063;51.406;-2.402;2023-03-20T03:49:59;100540.88;;;7.91;100.00
48882;BME280;57063;51.406;-2.402;2023-03-20T03:52:27;100532.00;;;7.99;100.00
48882;BME280;57063;51.406;-2.402;2023-03-20T03:55:02;100565.34;;;8.19;100.00
48882;BME280;57063;51.406;-2.402;2023-03-20T03:57:43;100571.34;;;8.20;100.00
48882;BME280;57063;51.406;-2.402;2023-03-20T04:00:13;100543.06;;;8.01;100.00
48882;BME280;57063;51.406;-2.402;2023-03-20T04:02:43;100535.63;;;8.13;100.00
48882;BME280;57063;51.406;-2.402;2023-03-20T04:05:12;100527.13;;;8.11;100.00
48882;BME280;57063;51.406;-2.402;2023-03-20T04:07:55;100533.03;;;8.13;100.00
48882;BME280;57063;51.406;-2.402;2023-03-20T04:10:26;100560.34;;;8.35;100.00
48882;BME280;57063;51.406;-2.402;2023-03-20T04:12:57;100524.28;;;8.18;100.00
48882;BME280;57063;51.406;-2.402;2023-03-20T04:15:33;100556.84;;;8.36;100.00
48882;BME280;57063;51.406;-2.402;2023-03-20T04:18:12;100524.84;;;8.24;100.00
48882;BME280;57063;51.406;-2.402;2023-03-20T04:20:44;100562.16;;;8.33;100.00
48882;BME280;57063;51.406;-2.402;2023-03-20T04:23:14;100518.03;;;8.04;100.00
48882;BME280;57063;51.406;-2.402;2023-03-20T04:25:42;100539.09;;;8.12;100.00
48882;BME280;57063;51.406;-2.402;2023-03-20T04:28:07;100532.91;;;8.17;100.00
48882;BME280;57063;51.406;-2.402;2023-03-20T04:30:33;100500.97;;;8.03;100.00
48882;BME280;57063;51.406;-2.402;2023-03-20T04:32:58;100508.81;;;8.00;100.00
48882;BME280;57063;51.406;-2.402;2023-03-20T04:35:24;100539.22;;;8.09;100.00
48882;BME280;57063;51.406;-2.402;2023-03-20T04:37:49;100516.84;;;8.11;100.00
48882;BME280;57063;51.406;-2.402;2023-03-20T04:40:15;100491.81;;;7.98;100.00
48882;BME280;57063;51.406;-2.402;2023-03-20T04:42:44;100515.19;;;8.10;100.00
48882;BME280;57063;51.406;-2.402;2023-03-20T04:45:12;100501.78;;;8.04;100.00
48882;BME280;57063;51.406;-2.402;2023-03-20T04:47:37;100505.69;;;8.12;100.00
48882;BME280;57063;51.406;-2.402;2023-03-20T04:50:06;100520.59;;;8.23;100.00
48882;BME280;57063;51.406;-2.402;2023-03-20T04:52:31;100513.88;;;8.21;100.00
48882;BME280;57063;51.406;-2.402;2023-03-20T04:54:59;100507.94;;;8.38;100.00
48882;BME280;57063;51.406;-2.402;2023-03-20T04:57:28;100506.34;;;8.35;100.00
48882;BME280;57063;51.406;-2.402;2023-03-20T05:00:00;100505.72;;;8.30;100.00
48882;BME280;57063;51.406;-2.402;2023-03-20T05:02:26;100523.13;;;8.44;100.00
48882;BME280;57063;51.406;-2.402;2023-03-20T05:04:54;100523.03;;;8.45;100.00
48882;BME280;57063;51.406;-2.402;2023-03-20T05:07:20;100500.22;;;8.38;100.00
48882;BME280;57063;51.406;-2.402;2023-03-20T05:09:48;100513.66;;;8.44;100.00
48882;BME280;57063;51.406;-2.402;2023-03-20T05:12:30;100509.28;;;8.46;100.00
48882;BME280;57063;51.406;-2.402;2023-03-20T05:14:56;100494.59;;;8.48;100.00
48882;BME280;57063;51.406;-2.402;2023-03-20T05:17:25;100487.19;;;8.42;100.00
48882;BME280;57063;51.406;-2.402;2023-03-20T05:19:53;100504.59;;;8.54;100.00
48882;BME280;57063;51.406;-2.402;2023-03-20T05:22:21;100488.81;;;8.43;100.00
48882;BME280;57063;51.406;-2.402;2023-03-20T05:24:47;100489.59;;;8.45;100.00
48882;BME280;57063;51.406;-2.402;2023-03-20T05:27:15;100509.31;;;8.64;100.00
48882;BME280;57063;51.406;-2.402;2023-03-20T05:29:40;100507.56;;;8.64;100.00
48882;BME280;57063;51.406;-2.402;2023-03-20T05:32:09;100509.00;;;8.70;100.00
48882;BME280;57063;51.406;-2.402;2023-03-20T05:34:42;100484.94;;;8.53;100.00
48882;BME280;57063;51.406;-2.402;2023-03-20T05:37:13;100480.69;;;8.52;100.00
48882;BME280;57063;51.406;-2.402;2023-03-20T05:39:41;100498.84;;;8.67;100.00
48882;BME280;57063;51.406;-2.402;2023-03-20T05:42:10;100528.97;;;8.82;100.00
48882;BME280;57063;51.406;-2.402;2023-03-20T05:44:40;100499.69;;;8.67;100.00
48882;BME280;57063;51.406;-2.402;2023-03-20T05:47:21;100480.25;;;8.62;100.00
48882;BME280;57063;51.406;-2.402;2023-03-20T05:49:48;100500.59;;;8.84;100.00
48882;BME280;57063;51.406;-2.402;2023-03-20T05:52:16;100476.63;;;8.66;100.00
48882;BME280;57063;51.406;-2.402;2023-03-20T05:54:45;100488.41;;;8.70;100.00
48882;BME280;57063;51.406;-2.402;2023-03-20T05:57:14;100495.84;;;8.76;100.00
48882;BME280;57063;51.406;-2.402;2023-03-20T05:59:42;100473.13;;;8.67;100.00
48882;BME280;57063;51.406;-2.402;2023-03-20T06:02:08;100490.91;;;8.71;100.00
48882;BME280;57063;51.406;-2.402;2023-03-20T06:04:36;100494.75;;;8.80;100.00
48882;BME280;57063;51.406;-2.402;2023-03-20T06:07:03;100474.94;;;8.65;100.00
48882;BME280;57063;51.406;-2.402;2023-03-20T06:09:28;100466.78;;;8.56;100.00
48882;BME280;57063;51.406;-2.402;2023-03-20T06:11:54;100491.13;;;8.84;100.00
48882;BME280;57063;51.406;-2.402;2023-03-20T06:14:22;100494.63;;;8.83;100.00
48882;BME280;57063;51.406;-2.402;2023-03-20T06:16:50;100495.31;;;8.87;100.00
48882;BME280;57063;51.406;-2.402;2023-03-20T06:19:20;100487.69;;;8.85;100.00
48882;BME280;57063;51.406;-2.402;2023-03-20T06:21:47;100487.81;;;8.82;100.00
48882;BME280;57063;51.406;-2.402;2023-03-20T06:24:18;100502.50;;;8.97;100.00
48882;BME280;57063;51.406;-2.402;2023-03-20T06:26:52;100481.16;;;8.78;100.00
48882;BME280;57063;51.406;-2.402;2023-03-20T06:29:20;100519.91;;;9.10;100.00
48882;BME280;57063;51.406;-2.402;2023-03-20T06:31:48;100493.88;;;8.98;100.00
48882;BME280;57063;51.406;-2.402;2023-03-20T06:34:14;100515.97;;;9.03;100.00
48882;BME280;57063;51.406;-2.402;2023-03-20T06:36:55;100529.00;;;9.17;100.00
48882;BME280;57063;51.406;-2.402;2023-03-20T06:39:27;100509.47;;;9.13;100.00
48882;BME280;57063;51.406;-2.402;2023-03-20T06:41:53;100519.00;;;9.11;100.00
48882;BME280;57063;51.406;-2.402;2023-03-20T06:44:18;100509.16;;;9.02;100.00
48882;BME280;57063;51.406;-2.402;2023-03-20T06:46:44;100494.41;;;8.88;100.00
48882;BME280;57063;51.406;-2.402;2023-03-20T06:49:10;100501.53;;;9.00;100.00
48882;BME280;57063;51.406;-2.402;2023-03-20T06:51:35;100506.28;;;9.08;100.00
48882;BME280;57063;51.406;-2.402;2023-03-20T06:54:01;100504.06;;;9.17;100.00
48882;BME280;57063;51.406;-2.402;2023-03-20T06:56:27;100514.16;;;9.22;100.00
48882;BME280;57063;51.406;-2.402;2023-03-20T06:58:52;100501.41;;;9.19;100.00
48882;BME280;57063;51.406;-2.402;2023-03-20T07:01:17;100489.63;;;9.15;100.00
48882;BME280;57063;51.406;-2.402;2023-03-20T07:03:45;100517.28;;;9.45;100.00
48882;BME280;57063;51.406;-2.402;2023-03-20T07:06:11;100485.44;;;9.30;100.00
48882;BME280;57063;51.406;-2.402;2023-03-20T07:08:40;100512.91;;;9.47;100.00
48882;BME280;57063;51.406;-2.402;2023-03-20T07:11:06;100508.63;;;9.46;100.00
48882;BME280;57063;51.406;-2.402;2023-03-20T07:13:31;100491.69;;;9.41;100.00
48882;BME280;57063;51.406;-2.402;2023-03-20T07:15:59;100483.03;;;9.42;100.00
48882;BME280;57063;51.406;-2.402;2023-03-20T07:18:26;100512.84;;;9.64;100.00
48882;BME280;57063;51.406;-2.402;2023-03-20T07:20:52;100506.00;;;9.63;100.00
48882;BME280;57063;51.406;-2.402;2023-03-20T07:23:18;100509.50;;;9.62;100.00
48882;BME280;57063;51.406;-2.402;2023-03-20T07:25:43;100514.19;;;9.71;100.00
48882;BME280;57063;51.406;-2.402;2023-03-20T07:28:10;100488.91;;;9.62;100.00
48882;BME280;57063;51.406;-2.402;2023-03-20T07:30:38;100497.50;;;9.78;100.00
48882;BME280;57063;51.406;-2.402;2023-03-20T07:33:03;100527.28;;;10.00;100.00
48882;BME280;57063;51.406;-2.402;2023-03-20T07:35:28;100517.34;;;9.92;100.00
48882;BME280;57063;51.406;-2.402;2023-03-20T07:37:54;100524.84;;;9.97;100.00
48882;BME280;57063;51.406;-2.402;2023-03-20T07:40:19;100509.97;;;9.86;100.00
48882;BME280;57063;51.406;-2.402;2023-03-20T07:42:45;100513.38;;;9.86;100.00
48882;BME280;57063;51.406;-2.402;2023-03-20T07:45:12;100519.88;;;9.94;100.00
48882;BME280;57063;51.406;-2.402;2023-03-20T07:47:38;100531.53;;;10.01;100.00
48882;BME280;57063;51.406;-2.402;2023-03-20T07:50:04;100502.56;;;9.96;100.00
48882;BME280;57063;51.406;-2.402;2023-03-20T07:52:29;100511.22;;;10.11;100.00
48882;BME280;57063;51.406;-2.402;2023-03-20T07:54:55;100522.53;;;10.24;100.00
48882;BME280;57063;51.406;-2.402;2023-03-20T07:57:21;100525.75;;;10.29;100.00
48882;BME280;57063;51.406;-2.402;2023-03-20T07:59:46;100517.06;;;10.30;100.00
48882;BME280;57063;51.406;-2.402;2023-03-20T08:02:16;100529.03;;;10.47;100.00
48882;BME280;57063;51.406;-2.402;2023-03-20T08:04:42;100516.41;;;10.42;100.00
48882;BME280;57063;51.406;-2.402;2023-03-20T08:07:08;100520.22;;;10.35;100.00
48882;BME280;57063;51.406;-2.402;2023-03-20T08:09:34;100523.88;;;10.47;100.00
48882;BME280;57063;51.406;-2.402;2023-03-20T08:11:59;100513.75;;;10.44;100.00
48882;BME280;57063;51.406;-2.402;2023-03-20T08:14:25;100521.19;;;10.64;100.00
48882;BME280;57063;51.406;-2.402;2023-03-20T08:16:50;100521.53;;;10.58;100.00
48882;BME280;57063;51.406;-2.402;2023-03-20T08:19:16;100514.00;;;10.39;100.00
48882;BME280;57063;51.406;-2.402;2023-03-20T08:21:41;100534.03;;;10.50;100.00
48882;BME280;57063;51.406;-2.402;2023-03-20T08:24:07;100551.78;;;10.56;100.00
48882;BME280;57063;51.406;-2.402;2023-03-20T08:26:32;100548.06;;;10.60;100.00
48882;BME280;57063;51.406;-2.402;2023-03-20T08:28:58;100540.69;;;10.54;100.00
48882;BME280;57063;51.406;-2.402;2023-03-20T08:31:24;100508.25;;;10.34;100.00
48882;BME280;57063;51.406;-2.402;2023-03-20T08:33:50;100540.34;;;10.60;100.00
48882;BME280;57063;51.406;-2.402;2023-03-20T08:36:16;100517.38;;;10.56;100.00
48882;BME280;57063;51.406;-2.402;2023-03-20T08:38:45;100522.38;;;10.59;100.00
48882;BME280;57063;51.406;-2.402;2023-03-20T08:41:11;100530.00;;;10.60;100.00
48882;BME280;57063;51.406;-2.402;2023-03-20T08:43:36;100525.53;;;10.64;100.00
48882;BME280;57063;51.406;-2.402;2023-03-20T08:46:02;100518.53;;;10.66;100.00
48882;BME280;57063;51.406;-2.402;2023-03-20T08:48:28;100531.81;;;10.74;100.00
48882;BME280;57063;51.406;-2.402;2023-03-20T08:50:53;100545.31;;;10.79;100.00
48882;BME280;57063;51.406;-2.402;2023-03-20T08:53:19;100549.38;;;10.83;100.00
48882;BME280;57063;51.406;-2.402;2023-03-20T08:55:49;100548.56;;;10.97;100.00
48882;BME280;57063;51.406;-2.402;2023-03-20T08:58:26;100531.38;;;10.82;100.00
48882;BME280;57063;51.406;-2.402;2023-03-20T09:00:52;100545.84;;;11.00;100.00
48882;BME280;57063;51.406;-2.402;2023-03-20T09:03:19;100558.44;;;11.21;100.00
48882;BME280;57063;51.406;-2.402;2023-03-20T09:05:46;100573.03;;;11.22;100.00
48882;BME280;57063;51.406;-2.402;2023-03-20T09:08:12;100572.28;;;11.20;100.00
48882;BME280;57063;51.406;-2.402;2023-03-20T09:10:38;100538.16;;;11.86;100.00
48882;BME280;57063;51.406;-2.402;2023-03-20T09:13:05;100534.84;;;11.70;100.00
48882;BME280;57063;51.406;-2.402;2023-03-20T09:15:30;100562.19;;;12.03;100.00
48882;BME280;57063;51.406;-2.402;2023-03-20T09:17:56;100565.88;;;12.13;100.00
48882;BME280;57063;51.406;-2.402;2023-03-20T09:20:21;100557.84;;;11.89;100.00
48882;BME280;57063;51.406;-2.402;2023-03-20T09:22:47;100544.44;;;11.68;100.00
48882;BME280;57063;51.406;-2.402;2023-03-20T09:25:12;100570.28;;;11.82;100.00
48882;BME280;57063;51.406;-2.402;2023-03-20T09:27:38;100548.69;;;11.69;100.00
48882;BME280;57063;51.406;-2.402;2023-03-20T09:30:08;100540.19;;;11.67;100.00
48882;BME280;57063;51.406;-2.402;2023-03-20T09:32:35;100546.84;;;11.85;100.00
48882;BME280;57063;51.406;-2.402;2023-03-20T09:35:01;100534.00;;;11.55;100.00
48882;BME280;57063;51.406;-2.402;2023-03-20T09:37:27;100544.91;;;12.03;100.00
48882;BME280;57063;51.406;-2.402;2023-03-20T09:39:52;100563.09;;;12.02;100.00
48882;BME280;57063;51.406;-2.402;2023-03-20T09:45:09;100573.94;;;12.35;100.00
48882;BME280;57063;51.406;-2.402;2023-03-20T09:55:56;100540.94;;;11.69;100.00
48882;BME280;57063;51.406;-2.402;2023-03-20T09:58:26;100575.28;;;11.99;100.00
48882;BME280;57063;51.406;-2.402;2023-03-20T10:00:55;100557.50;;;11.95;100.00
48882;BME280;57063;51.406;-2.402;2023-03-20T10:03:53;100556.34;;;11.85;100.00
48882;BME280;57063;51.406;-2.402;2023-03-20T10:06:20;100564.47;;;11.64;100.00
48882;BME280;57063;51.406;-2.402;2023-03-20T10:08:45;100542.97;;;11.49;100.00
48882;BME280;57063;51.406;-2.402;2023-03-20T10:11:37;100580.63;;;11.82;100.00
48882;BME280;57063;51.406;-2.402;2023-03-20T10:20:38;100584.69;;;11.57;100.00
48882;BME280;57063;51.406;-2.402;2023-03-20T10:22:47;100574.00;;;11.64;100.00
48882;BME280;57063;51.406;-2.402;2023-03-20T10:27:51;100588.97;;;11.87;100.00
48882;BME280;57063;51.406;-2.402;2023-03-20T10:30:27;100574.00;;;11.78;100.00
48882;BME280;57063;51.406;-2.402;2023-03-20T10:38:40;100591.75;;;12.13;100.00
48882;BME280;57063;51.406;-2.402;2023-03-20T10:41:17;100563.94;;;12.02;100.00
48882;BME280;57063;51.406;-2.402;2023-03-20T10:43:45;100575.28;;;12.14;100.00
48882;BME280;57063;51.406;-2.402;2023-03-20T10:46:33;100570.38;;;12.09;100.00
48882;BME280;57063;51.406;-2.402;2023-03-20T10:49:01;100591.22;;;11.93;100.00
48882;BME280;57063;51.406;-2.402;2023-03-20T10:51:41;100582.88;;;11.74;100.00
48882;BME280;57063;51.406;-2.402;2023-03-20T10:54:33;100576.94;;;11.86;100.00
48882;BME280;57063;51.406;-2.402;2023-03-20T10:57:01;100549.06;;;11.91;100.00
48882;BME280;57063;51.406;-2.402;2023-03-20T10:59:38;100574.47;;;11.99;100.00
48882;BME280;57063;51.406;-2.402;2023-03-20T11:02:12;100570.50;;;12.08;100.00
48882;BME280;57063;51.406;-2.402;2023-03-20T11:04:38;100559.41;;;12.06;100.00
48882;BME280;57063;51.406;-2.402;2023-03-20T11:15:03;100549.88;;;12.48;99.72
48882;BME280;57063;51.406;-2.402;2023-03-20T11:17:30;100544.50;;;12.51;100.00
48882;BME280;57063;51.406;-2.402;2023-03-20T11:20:03;100561.88;;;13.16;100.00
48882;BME280;57063;51.406;-2.402;2023-03-20T11:22:28;100534.50;;;12.59;100.00
48882;BME280;57063;51.406;-2.402;2023-03-20T11:24:59;100540.81;;;12.55;100.00
48882;BME280;57063;51.406;-2.402;2023-03-20T11:27:30;100543.53;;;12.66;100.00
48882;BME280;57063;51.406;-2.402;2023-03-20T11:29:59;100529.63;;;12.27;100.00
48882;BME280;57063;51.406;-2.402;2023-03-20T11:32:34;100551.13;;;12.42;100.00
48882;BME280;57063;51.406;-2.402;2023-03-20T11:37:52;100540.81;;;12.55;100.00
48882;BME280;57063;51.406;-2.402;2023-03-20T11:40:39;100568.53;;;12.53;100.00
48882;BME280;57063;51.406;-2.402;2023-03-20T11:43:13;100546.13;;;12.39;100.00
48882;BME280;57063;51.406;-2.402;2023-03-20T11:45:44;100555.28;;;12.84;100.00
48882;BME280;57063;51.406;-2.402;2023-03-20T11:48:19;100553.59;;;12.43;100.00
48882;BME280;57063;51.406;-2.402;2023-03-20T11:51:01;100566.88;;;12.52;100.00
48882;BME280;57063;51.406;-2.402;2023-03-20T11:53:31;100557.34;;;12.52;100.00
48882;BME280;57063;51.406;-2.402;2023-03-20T11:56:23;100558.09;;;12.54;100.00
48882;BME280;57063;51.406;-2.402;2023-03-20T11:59:11;100539.00;;;12.42;100.00
48882;BME280;57063;51.406;-2.402;2023-03-20T12:01:39;100549.69;;;12.51;100.00
48882;BME280;57063;51.406;-2.402;2023-03-20T12:04:18;100535.41;;;12.31;100.00
48882;BME280;57063;51.406;-2.402;2023-03-20T12:06:52;100528.56;;;12.03;100.00
48882;BME280;57063;51.406;-2.402;2023-03-20T12:09:25;100510.69;;;12.27;100.00
48882;BME280;57063;51.406;-2.402;2023-03-20T12:12:01;100521.81;;;12.41;100.00
48882;BME280;57063;51.406;-2.402;2023-03-20T12:17:09;100524.22;;;12.57;100.00
48882;BME280;57063;51.406;-2.402;2023-03-20T12:19:41;100510.59;;;12.68;100.00
48882;BME280;57063;51.406;-2.402;2023-03-20T12:22:19;100531.31;;;12.68;100.00
48882;BME280;57063;51.406;-2.402;2023-03-20T12:25:00;100539.00;;;12.82;100.00
48882;BME280;57063;51.406;-2.402;2023-03-20T12:30:42;100533.81;;;12.82;100.00
48882;BME280;57063;51.406;-2.402;2023-03-20T12:33:21;100508.34;;;12.76;100.00
48882;BME280;57063;51.406;-2.402;2023-03-20T12:35:52;100498.91;;;12.35;100.00
48882;BME280;57063;51.406;-2.402;2023-03-20T12:38:26;100532.50;;;12.50;100.00
48882;BME280;57063;51.406;-2.402;2023-03-20T12:41:00;100517.50;;;12.55;100.00
48882;BME280;57063;51.406;-2.402;2023-03-20T12:43:38;100497.81;;;12.25;100.00
48882;BME280;57063;51.406;-2.402;2023-03-20T12:46:17;100506.41;;;12.53;100.00
48882;BME280;57063;51.406;-2.402;2023-03-20T12:48:57;100497.63;;;12.28;100.00
48882;BME280;57063;51.406;-2.402;2023-03-20T13:05:29;100464.56;;;12.46;100.00
48882;BME280;57063;51.406;-2.402;2023-03-20T13:08:16;100503.59;;;12.83;100.00
48882;BME280;57063;51.406;-2.402;2023-03-20T13:13:47;100499.66;;;12.90;100.00
48882;BME280;57063;51.406;-2.402;2023-03-20T13:16:19;100500.28;;;12.81;100.00
48882;BME280;57063;51.406;-2.402;2023-03-20T13:19:06;100489.69;;;12.71;100.00
48882;BME280;57063;51.406;-2.402;2023-03-20T13:22:04;100473.84;;;12.89;100.00
48882;BME280;57063;51.406;-2.402;2023-03-20T13:27:18;100492.94;;;12.48;100.00
48882;BME280;57063;51.406;-2.402;2023-03-20T13:29:56;100493.00;;;12.73;100.00
48882;BME280;57063;51.406;-2.402;2023-03-20T13:32:31;100481.72;;;12.34;100.00
48882;BME280;57063;51.406;-2.402;2023-03-20T13:37:41;100466.84;;;12.51;100.00
48882;BME280;57063;51.406;-2.402;2023-03-20T13:40:21;100480.81;;;12.48;100.00
48882;BME280;57063;51.406;-2.402;2023-03-20T13:42:56;100477.59;;;12.45;100.00
48882;BME280;57063;51.406;-2.402;2023-03-20T13:45:41;100464.13;;;12.39;100.00
48882;BME280;57063;51.406;-2.402;2023-03-20T13:48:31;100472.09;;;12.36;100.00
48882;BME280;57063;51.406;-2.402;2023-03-20T13:59:42;100474.03;;;12.33;100.00
48882;BME280;57063;51.406;-2.402;2023-03-20T14:04:52;100447.63;;;12.01;100.00
48882;BME280;57063;51.406;-2.402;2023-03-20T14:07:35;100438.94;;;12.02;100.00
48882;BME280;57063;51.406;-2.402;2023-03-20T14:12:48;100447.19;;;11.94;100.00
48882;BME280;57063;51.406;-2.402;2023-03-20T14:15:14;100440.94;;;12.11;100.00
48882;BME280;57063;51.406;-2.402;2023-03-20T14:17:43;100437.56;;;12.23;100.00
48882;BME280;57063;51.406;-2.402;2023-03-20T14:20:19;100424.88;;;12.33;100.00
48882;BME280;57063;51.406;-2.402;2023-03-20T14:22:45;100440.63;;;12.03;100.00
48882;BME280;57063;51.406;-2.402;2023-03-20T14:25:17;100439.00;;;12.14;100.00
48882;BME280;57063;51.406;-2.402;2023-03-20T14:28:06;100445.28;;;12.37;100.00
48882;BME280;57063;51.406;-2.402;2023-03-20T14:30:44;100425.09;;;12.03;100.00
48882;BME280;57063;51.406;-2.402;2023-03-20T14:35:45;100413.19;;;11.86;100.00
48882;BME280;57063;51.406;-2.402;2023-03-20T14:38:27;100426.78;;;11.75;100.00
48882;BME280;57063;51.406;-2.402;2023-03-20T14:46:42;100415.91;;;11.55;100.00
48882;BME280;57063;51.406;-2.402;2023-03-20T14:54:53;100430.66;;;11.68;100.00
48882;BME280;57063;51.406;-2.402;2023-03-20T14:57:33;100417.28;;;11.20;100.00
48882;BME280;57063;51.406;-2.402;2023-03-20T14:59:59;100401.50;;;11.10;100.00
48882;BME280;57063;51.406;-2.402;2023-03-20T15:02:33;100417.34;;;11.18;100.00
48882;BME280;57063;51.406;-2.402;2023-03-20T15:04:59;100409.69;;;11.17;100.00
48882;BME280;57063;51.406;-2.402;2023-03-20T15:07:30;100413.94;;;11.03;100.00
48882;BME280;57063;51.406;-2.402;2023-03-20T15:09:59;100412.28;;;11.02;100.00
48882;BME280;57063;51.406;-2.402;2023-03-20T15:12:29;100425.19;;;11.02;100.00
48882;BME280;57063;51.406;-2.402;2023-03-20T15:14:59;100431.63;;;11.09;100.00
48882;BME280;57063;51.406;-2.402;2023-03-20T15:17:26;100422.78;;;10.99;100.00
48882;BME280;57063;51.406;-2.402;2023-03-20T15:20:13;100420.75;;;11.04;100.00
48882;BME280;57063;51.406;-2.402;2023-03-20T15:25:20;100386.25;;;10.77;100.00
48882;BME280;57063;51.406;-2.402;2023-03-20T15:27:46;100386.16;;;10.78;100.00
48882;BME280;57063;51.406;-2.402;2023-03-20T15:30:15;100383.75;;;10.75;100.00
48882;BME280;57063;51.406;-2.402;2023-03-20T15:32:41;100398.03;;;10.66;100.00
48882;BME280;57063;51.406;-2.402;2023-03-20T15:35:18;100409.75;;;10.72;100.00
48882;BME280;57063;51.406;-2.402;2023-03-20T15:37:47;100380.69;;;10.54;100.00
48882;BME280;57063;51.406;-2.402;2023-03-20T15:40:23;100389.81;;;10.60;100.00
48882;BME280;57063;51.406;-2.402;2023-03-20T15:42:56;100406.50;;;10.54;100.00
48882;BME280;57063;51.406;-2.402;2023-03-20T15:45:26;100396.50;;;10.48;100.00
48882;BME280;57063;51.406;-2.402;2023-03-20T15:48:04;100407.97;;;10.58;100.00
48882;BME280;57063;51.406;-2.402;2023-03-20T15:50:36;100414.53;;;10.64;100.00
48882;BME280;57063;51.406;-2.402;2023-03-20T15:53:06;100419.97;;;10.59;100.00
48882;BME280;57063;51.406;-2.402;2023-03-20T15:55:36;100399.84;;;10.50;100.00
48882;BME280;57063;51.406;-2.402;2023-03-20T15:58:02;100404.53;;;10.27;100.00
48882;BME280;57063;51.406;-2.402;2023-03-20T16:00:31;100404.69;;;10.40;100.00
48882;BME280;57063;51.406;-2.402;2023-03-20T16:03:00;100383.41;;;10.37;100.00
48882;BME280;57063;51.406;-2.402;2023-03-20T16:05:28;100384.56;;;10.31;100.00
48882;BME280;57063;51.406;-2.402;2023-03-20T16:07:54;100400.84;;;10.47;100.00
48882;BME280;57063;51.406;-2.402;2023-03-20T16:10:27;100398.84;;;10.53;100.00
48882;BME280;57063;51.406;-2.402;2023-03-20T16:12:53;100393.31;;;10.28;100.00
48882;BME280;57063;51.406;-2.402;2023-03-20T16:15:20;100386.44;;;10.29;100.00
48882;BME280;57063;51.406;-2.402;2023-03-20T16:17:48;100387.56;;;10.23;100.00
48882;BME280;57063;51.406;-2.402;2023-03-20T16:20:17;100367.00;;;9.92;100.00
48882;BME280;57063;51.406;-2.402;2023-03-20T16:22:43;100367.88;;;10.06;100.00
48882;BME280;57063;51.406;-2.402;2023-03-20T16:25:18;100380.00;;;10.20;100.00
48882;BME280;57063;51.406;-2.402;2023-03-20T16:27:47;100368.63;;;10.08;100.00
48882;BME280;57063;51.406;-2.402;2023-03-20T16:30:21;100359.50;;;10.03;100.00
48882;BME280;57063;51.406;-2.402;2023-03-20T16:32:53;100375.09;;;10.16;100.00
48882;BME280;57063;51.406;-2.402;2023-03-20T16:35:23;100345.88;;;10.01;100.00
48882;BME280;57063;51.406;-2.402;2023-03-20T16:37:58;100360.81;;;10.10;100.00
48882;BME280;57063;51.406;-2.402;2023-03-20T16:40:32;100371.28;;;10.07;100.00
48882;BME280;57063;51.406;-2.402;2023-03-20T16:43:09;100353.38;;;9.90;100.00
48882;BME280;57063;51.406;-2.402;2023-03-20T16:46:08;100382.91;;;10.00;100.00
48882;BME280;57063;51.406;-2.402;2023-03-20T16:48:35;100342.41;;;9.70;100.00
48882;BME280;57063;51.406;-2.402;2023-03-20T16:51:26;100350.22;;;9.84;100.00
48882;BME280;57063;51.406;-2.402;2023-03-20T16:53:57;100346.88;;;9.82;100.00